Time,TemperatureF,DewpointF,PressureIn,WindDirection,WindDirectionDegrees,WindSpeedMPH,WindSpeedGustMPH,Humidity,HourlyPrecipIn,Conditions,Clouds,dailyrainin,SoftwareType,DateUTC
2013-04-08 00:03:00,66.0,59.0,30.12,ENE,60,0.0,1.0,77,99.99,,,-99.99,,2013-04-08 04:03:00,
2013-04-08 00:12:00,66.0,59.0,30.12,ENE,60,0.0,1.0,77,99.99,,,-99.99,,2013-04-08 04:12:00,
2013-04-08 00:23:00,65.0,58.0,30.11,North,0,0.0,0.0,79,99.99,,,-99.99,,2013-04-08 04:23:00,
2013-04-08 00:33:00,64.0,58.0,30.11,North,0,0.0,0.0,81,99.99,,,-99.99,,2013-04-08 04:33:00,
2013-04-08 00:44:00,64.0,58.0,30.11,North,0,0.0,0.0,81,99.99,,,-99.99,,2013-04-08 04:44:00,
2013-04-08 00:53:00,64.0,59.0,30.11,North,0,0.0,0.0,83,99.99,,,-99.99,,2013-04-08 04:53:00,
2013-04-08 01:02:00,64.0,59.0,30.11,North,0,0.0,0.0,85,99.99,,,-99.99,,2013-04-08 05:02:00,
2013-04-08 01:12:00,64.0,59.0,30.11,North,0,0.0,0.0,85,99.99,,,-99.99,,2013-04-08 05:12:00,
2013-04-08 01:22:00,64.0,59.0,30.11,North,0,0.0,0.0,85,99.99,,,-99.99,,2013-04-08 05:22:00,
2013-04-08 01:32:00,64.0,60.0,30.11,North,0,0.0,0.0,88,99.99,,,-99.99,,2013-04-08 05:32:00,
2013-04-08 01:42:00,64.0,61.0,30.11,North,0,0.0,0.0,89,99.99,,,-99.99,,2013-04-08 05:42:00,
2013-04-08 01:53:00,64.0,61.0,30.11,North,0,0.0,0.0,89,99.99,,,-99.99,,2013-04-08 05:53:00,
2013-04-08 02:02:00,64.0,61.0,30.10,North,0,0.0,0.0,90,99.99,,,-99.99,,2013-04-08 06:02:00,
2013-04-08 02:12:00,64.0,62.0,30.10,North,0,0.0,0.0,93,99.99,,,-99.99,,2013-04-08 06:12:00,
2013-04-08 02:22:00,64.0,62.0,30.10,North,0,0.0,0.0,93,99.99,,,-99.99,,2013-04-08 06:22:00,
2013-04-08 02:32:00,64.0,62.0,30.10,North,0,0.0,0.0,94,99.99,,,-99.99,,2013-04-08 06:32:00,
2013-04-08 02:43:00,64.0,62.0,30.10,North,0,0.0,0.0,94,99.99,,,-99.99,,2013-04-08 06:43:00,
2013-04-08 02:52:00,63.0,61.0,30.10,ENE,72,0.0,1.0,93,99.99,,,-99.99,,2013-04-08 06:52:00,
2013-04-08 03:02:00,64.0,62.0,30.09,North,0,0.0,0.0,93,99.99,,,-99.99,,2013-04-08 07:02:00,
2013-04-08 03:12:00,64.0,63.0,30.09,North,0,0.0,0.0,95,99.99,,,-99.99,,2013-04-08 07:12:00,
2013-04-08 03:22:00,64.0,63.0,30.09,North,0,0.0,0.0,95,99.99,,,-99.99,,2013-04-08 07:22:00,
2013-04-08 03:33:00,64.0,63.0,30.09,North,0,0.0,0.0,95,99.99,,,-99.99,,2013-04-08 07:33:00,
2013-04-08 03:42:00,64.0,63.0,30.09,North,0,0.0,0.0,95,99.99,,,-99.99,,2013-04-08 07:42:00,
2013-04-08 03:52:00,63.0,62.0,30.08,North,0,0.0,0.0,96,99.99,,,-99.99,,2013-04-08 07:52:00,
2013-04-08 04:02:00,63.0,62.0,30.08,North,0,0.0,0.0,96,99.99,,,-99.99,,2013-04-08 08:02:00,
2013-04-08 04:12:00,63.0,62.0,30.08,North,0,0.0,0.0,96,99.99,,,-99.99,,2013-04-08 08:12:00,
2013-04-08 04:22:00,63.0,62.0,30.08,North,0,0.0,0.0,96,99.99,,,-99.99,,2013-04-08 08:22:00,
2013-04-08 04:33:00,63.0,62.0,30.08,North,0,0.0,0.0,96,99.99,,,-99.99,,2013-04-08 08:33:00,
2013-04-08 04:42:00,63.0,62.0,30.06,North,0,0.0,0.0,97,99.99,,,-99.99,,2013-04-08 08:42:00,
2013-04-08 04:52:00,63.0,62.0,30.06,North,0,0.0,0.0,97,99.99,,,-99.99,,2013-04-08 08:52:00,
2013-04-08 05:02:00,62.0,61.0,30.06,North,0,0.0,0.0,97,99.99,,,-99.99,,2013-04-08 09:02:00,
2013-04-08 05:12:00,62.0,-99.9,30.07,North,0,0.0,0.0,-999,99.99,,,-99.99,,2013-04-08 09:12:00,
2013-04-08 05:23:00,62.0,-99.9,30.07,North,0,0.0,0.0,-999,99.99,,,-99.99,,2013-04-08 09:23:00,
2013-04-08 05:33:00,62.0,62.0,30.06,North,0,0.0,0.0,99,99.99,,,-99.99,,2013-04-08 09:33:00,
2013-04-08 05:43:00,61.0,61.0,30.07,North,0,0.0,0.0,99,99.99,,,-99.99,,2013-04-08 09:43:00,
2013-04-08 05:53:00,61.0,61.0,30.07,North,0,0.0,0.0,99,99.99,,,-99.99,,2013-04-08 09:53:00,
2013-04-08 06:03:00,61.0,61.0,30.07,North,0,0.0,0.0,100,99.99,,,-99.99,,2013-04-08 10:03:00,
2013-04-08 06:13:00,61.0,61.0,30.07,North,0,0.0,0.0,100,99.99,,,-99.99,,2013-04-08 10:13:00,
2013-04-08 06:23:00,61.0,61.0,30.07,North,0,0.0,0.0,100,99.99,,,-99.99,,2013-04-08 10:23:00,
2013-04-08 06:33:00,61.0,61.0,30.08,North,0,0.0,0.0,100,99.99,,,-99.99,,2013-04-08 10:33:00,
2013-04-08 06:42:00,61.0,61.0,30.08,North,0,0.0,0.0,100,99.99,,,-99.99,,2013-04-08 10:42:00,
2013-04-08 06:53:00,61.0,61.0,30.08,North,0,0.0,0.0,100,99.99,,,-99.99,,2013-04-08 10:53:00,
2013-04-08 07:02:00,61.0,61.0,30.09,North,0,0.0,0.0,100,99.99,,,-99.99,,2013-04-08 11:02:00,
2013-04-08 07:12:00,61.0,61.0,30.10,North,0,0.0,0.0,100,99.99,,,-99.99,,2013-04-08 11:12:00,
2013-04-08 07:23:00,61.0,61.0,30.10,North,0,0.0,0.0,100,99.99,,,-99.99,,2013-04-08 11:23:00,
2013-04-08 07:32:00,61.0,61.0,30.10,North,0,0.0,0.0,100,99.99,,,-99.99,,2013-04-08 11:32:00,
2013-04-08 07:42:00,61.0,61.0,30.10,North,0,0.0,0.0,100,99.99,,,-99.99,,2013-04-08 11:42:00,
2013-04-08 07:53:00,61.0,61.0,30.10,North,0,0.0,0.0,100,99.99,,,-99.99,,2013-04-08 11:53:00,
2013-04-08 08:03:00,61.0,61.0,30.11,North,0,0.0,0.0,100,99.99,,,-99.99,,2013-04-08 12:03:00,
2013-04-08 08:12:00,61.0,61.0,30.11,North,0,0.0,0.0,100,99.99,,,-99.99,,2013-04-08 12:12:00,
2013-04-08 08:23:00,62.0,-99.9,30.11,ENE,77,1.0,2.0,-999,99.99,,,-99.99,,2013-04-08 12:23:00,
2013-04-08 08:33:00,64.0,64.0,30.11,ENE,68,1.0,2.0,100,99.99,,,-99.99,,2013-04-08 12:33:00,
2013-04-08 08:42:00,64.0,64.0,30.11,ENE,68,1.0,2.0,100,99.99,,,-99.99,,2013-04-08 12:42:00,
2013-04-08 08:53:00,65.0,65.0,30.11,ENE,65,2.0,4.0,100,99.99,,,-99.99,,2013-04-08 12:53:00,
2013-04-08 09:03:00,67.0,67.0,30.12,ESE,110,2.0,4.0,100,99.99,,,-99.99,,2013-04-08 13:03:00,
2013-04-08 09:12:00,67.0,67.0,30.12,ESE,110,2.0,4.0,100,99.99,,,-99.99,,2013-04-08 13:12:00,
2013-04-08 09:22:00,68.0,67.0,30.13,SE,129,3.0,5.0,96,99.99,,,-99.99,,2013-04-08 13:22:00,
2013-04-08 09:32:00,70.0,65.0,30.13,SSE,160,3.0,5.0,84,99.99,,,-99.99,,2013-04-08 13:32:00,
2013-04-08 09:42:00,70.0,65.0,30.13,SSE,160,3.0,5.0,84,99.99,,,-99.99,,2013-04-08 13:42:00,
2013-04-08 09:52:00,67.0,67.0,30.13,SE,135,4.0,6.0,100,99.99,,,-99.99,,2013-04-08 13:52:00,
2013-04-08 10:03:00,73.0,62.0,30.14,ESE,122,4.0,6.0,68,99.99,,,-99.99,,2013-04-08 14:03:00,
2013-04-08 10:12:00,75.0,-99.9,30.13,SE,138,2.0,6.0,-999,99.99,,,-99.99,,2013-04-08 14:12:00,
2013-04-08 10:22:00,75.0,-99.9,30.13,SE,138,2.0,6.0,-999,99.99,,,-99.99,,2013-04-08 14:22:00,
2013-04-08 10:32:00,75.0,56.0,30.13,SSE,160,5.0,8.0,51,99.99,,,-99.99,,2013-04-08 14:32:00,
2013-04-08 10:42:00,76.0,55.0,30.13,South,176,4.0,8.0,48,99.99,,,-99.99,,2013-04-08 14:42:00,
2013-04-08 10:52:00,76.0,55.0,30.13,South,176,4.0,8.0,48,99.99,,,-99.99,,2013-04-08 14:52:00,
2013-04-08 11:02:00,77.0,53.0,30.13,ESE,117,4.0,7.0,44,99.99,,,-99.99,,2013-04-08 15:02:00,
2013-04-08 11:12:00,78.0,-99.9,30.13,ENE,76,6.0,10.0,-999,99.99,,,-99.99,,2013-04-08 15:12:00,
2013-04-08 11:22:00,78.0,-99.9,30.13,ENE,76,6.0,10.0,-999,99.99,,,-99.99,,2013-04-08 15:22:00,
2013-04-08 11:33:00,78.0,49.0,30.13,ENE,69,7.0,12.0,36,99.99,,,-99.99,,2013-04-08 15:33:00,
2013-04-08 11:43:00,78.0,49.0,30.13,ENE,69,7.0,12.0,36,99.99,,,-99.99,,2013-04-08 15:43:00,
2013-04-08 11:53:00,79.0,46.0,30.13,ENE,65,5.0,12.0,31,99.99,,,-99.99,,2013-04-08 15:53:00,
2013-04-08 12:03:00,80.0,35.0,30.13,ESE,110,6.0,12.0,20,99.99,,,-99.99,,2013-04-08 16:03:00,
2013-04-08 12:13:00,80.0,-99.9,30.13,ENE,68,5.0,10.0,-999,99.99,,,-99.99,,2013-04-08 16:13:00,
2013-04-08 12:23:00,80.0,-99.9,30.13,ENE,68,5.0,10.0,-999,99.99,,,-99.99,,2013-04-08 16:23:00,
2013-04-08 12:33:00,80.0,-99.9,30.13,ENE,68,5.0,10.0,-999,99.99,,,-99.99,,2013-04-08 16:33:00,
2013-04-08 12:42:00,80.0,47.0,30.12,ENE,76,6.0,9.0,32,99.99,,,-99.99,,2013-04-08 16:42:00,
2013-04-08 12:53:00,80.0,47.0,30.12,ESE,120,4.0,10.0,31,99.99,,,-99.99,,2013-04-08 16:53:00,
2013-04-08 13:03:00,81.0,48.0,30.12,East,101,7.0,11.0,32,99.99,,,-99.99,,2013-04-08 17:03:00,
2013-04-08 13:12:00,81.0,-99.9,30.11,ESE,120,4.0,10.0,-999,99.99,,,-99.99,,2013-04-08 17:12:00,
2013-04-08 13:23:00,81.0,-99.9,30.11,ESE,120,4.0,10.0,-999,99.99,,,-99.99,,2013-04-08 17:23:00,
2013-04-08 13:32:00,81.0,47.0,30.11,East,84,3.0,8.0,30,99.99,,,-99.99,,2013-04-08 17:32:00,
2013-04-08 13:43:00,81.0,47.0,30.11,East,84,3.0,8.0,30,99.99,,,-99.99,,2013-04-08 17:43:00,
2013-04-08 13:52:00,82.0,44.0,30.09,East,96,6.0,15.0,26,99.99,,,-99.99,,2013-04-08 17:52:00,
2013-04-08 14:02:00,82.0,47.0,30.09,East,90,4.0,9.0,29,99.99,,,-99.99,,2013-04-08 18:02:00,
2013-04-08 14:12:00,82.0,-99.9,30.08,ESE,120,7.0,12.0,-999,99.99,,,-99.99,,2013-04-08 18:12:00,
2013-04-08 14:23:00,82.0,-99.9,30.08,ESE,120,7.0,12.0,-999,99.99,,,-99.99,,2013-04-08 18:23:00,
2013-04-08 14:32:00,82.0,45.0,30.08,ESE,108,7.0,11.0,27,99.99,,,-99.99,,2013-04-08 18:32:00,
2013-04-08 14:42:00,83.0,40.0,30.08,South,180,4.0,8.0,22,99.99,,,-99.99,,2013-04-08 18:42:00,
2013-04-08 14:52:00,83.0,40.0,30.08,South,180,4.0,8.0,22,99.99,,,-99.99,,2013-04-08 18:52:00,
2013-04-08 15:02:00,84.0,46.0,30.07,SSE,158,7.0,11.0,27,99.99,,,-99.99,,2013-04-08 19:02:00,
2013-04-08 15:12:00,83.0,46.0,30.07,SSE,163,3.0,10.0,27,99.99,,,-99.99,,2013-04-08 19:12:00,
2013-04-08 15:23:00,83.0,46.0,30.07,SSE,163,3.0,10.0,27,99.99,,,-99.99,,2013-04-08 19:23:00,
2013-04-08 15:33:00,82.0,36.0,30.06,ESE,113,2.0,7.0,19,99.99,,,-99.99,,2013-04-08 19:33:00,
2013-04-08 15:42:00,82.0,37.0,30.06,ESE,115,6.0,11.0,20,99.99,,,-99.99,,2013-04-08 19:42:00,
2013-04-08 15:52:00,82.0,37.0,30.06,ESE,115,6.0,11.0,20,99.99,,,-99.99,,2013-04-08 19:52:00,
2013-04-08 16:02:00,82.0,30.0,30.05,SSE,148,3.0,13.0,15,99.99,,,-99.99,,2013-04-08 20:02:00,
2013-04-08 16:12:00,81.0,31.0,30.05,SSE,158,4.0,7.0,16,99.99,,,-99.99,,2013-04-08 20:12:00,
2013-04-08 16:23:00,81.0,31.0,30.05,SSE,158,4.0,7.0,16,99.99,,,-99.99,,2013-04-08 20:23:00,
2013-04-08 16:33:00,83.0,27.0,30.05,SSE,152,5.0,9.0,13,99.99,,,-99.99,,2013-04-08 20:33:00,
2013-04-08 16:43:00,83.0,27.0,30.05,SSE,152,5.0,9.0,13,99.99,,,-99.99,,2013-04-08 20:43:00,
2013-04-08 16:52:00,82.0,30.0,30.04,SSE,156,4.0,7.0,15,99.99,,,-99.99,,2013-04-08 20:52:00,
2013-04-08 17:02:00,83.0,31.0,30.04,ESE,114,6.0,11.0,15,99.99,,,-99.99,,2013-04-08 21:02:00,
2013-04-08 17:12:00,81.0,32.0,30.04,East,80,5.0,10.0,17,99.99,,,-99.99,,2013-04-08 21:12:00,
2013-04-08 17:22:00,81.0,32.0,30.04,East,80,5.0,10.0,17,99.99,,,-99.99,,2013-04-08 21:22:00,
2013-04-08 17:32:00,81.0,32.0,30.04,SE,143,5.0,11.0,17,99.99,,,-99.99,,2013-04-08 21:32:00,
2013-04-08 17:43:00,81.0,32.0,30.04,SE,143,5.0,11.0,17,99.99,,,-99.99,,2013-04-08 21:43:00,
2013-04-08 17:53:00,82.0,33.0,30.04,SE,134,6.0,10.0,17,99.99,,,-99.99,,2013-04-08 21:53:00,
2013-04-08 18:03:00,81.0,33.0,30.04,SSE,155,3.0,7.0,18,99.99,,,-99.99,,2013-04-08 22:03:00,
2013-04-08 18:13:00,81.0,36.0,30.04,SSE,163,5.0,10.0,20,99.99,,,-99.99,,2013-04-08 22:13:00,
2013-04-08 18:23:00,81.0,36.0,30.04,SSE,163,5.0,10.0,20,99.99,,,-99.99,,2013-04-08 22:23:00,
2013-04-08 18:32:00,81.0,36.0,30.04,SSE,163,5.0,10.0,20,99.99,,,-99.99,,2013-04-08 22:32:00,
2013-04-08 18:43:00,81.0,39.0,30.05,ESE,113,5.0,11.0,22,99.99,,,-99.99,,2013-04-08 22:43:00,
2013-04-08 18:53:00,80.0,34.0,30.05,South,174,6.0,10.0,19,99.99,,,-99.99,,2013-04-08 22:53:00,
2013-04-08 19:02:00,80.0,37.0,30.06,SE,134,6.0,10.0,21,99.99,,,-99.99,,2013-04-08 23:02:00,
2013-04-08 19:12:00,80.0,37.0,30.06,SE,134,6.0,10.0,21,99.99,,,-99.99,,2013-04-08 23:12:00,
2013-04-08 19:22:00,80.0,37.0,30.06,SE,134,6.0,10.0,21,99.99,,,-99.99,,2013-04-08 23:22:00,
2013-04-08 19:32:00,80.0,42.0,30.06,ESE,118,1.0,5.0,26,99.99,,,-99.99,,2013-04-08 23:32:00,
2013-04-08 19:43:00,78.0,42.0,30.06,ESE,111,2.0,6.0,28,99.99,,,-99.99,,2013-04-08 23:43:00,
2013-04-08 19:52:00,78.0,42.0,30.06,ESE,111,2.0,6.0,28,99.99,,,-99.99,,2013-04-08 23:52:00,
2013-04-08 20:02:00,77.0,44.0,30.06,SE,128,3.0,5.0,31,99.99,,,-99.99,,2013-04-09 00:02:00,
2013-04-08 20:12:00,77.0,44.0,30.06,SE,128,3.0,5.0,31,99.99,,,-99.99,,2013-04-09 00:12:00,
2013-04-08 20:22:00,76.0,45.0,30.06,ESE,118,5.0,9.0,33,99.99,,,-99.99,,2013-04-09 00:22:00,
2013-04-08 20:32:00,75.0,45.0,30.07,SE,141,3.0,7.0,35,99.99,,,-99.99,,2013-04-09 00:32:00,
2013-04-08 20:42:00,74.0,46.0,30.07,SE,146,3.0,5.0,37,99.99,,,-99.99,,2013-04-09 00:42:00,
2013-04-08 20:52:00,74.0,46.0,30.07,SE,146,3.0,5.0,37,99.99,,,-99.99,,2013-04-09 00:52:00,
2013-04-08 21:02:00,73.0,47.0,30.08,ESE,121,3.0,6.0,40,99.99,,,-99.99,,2013-04-09 01:02:00,
2013-04-08 21:12:00,73.0,49.0,30.08,SE,141,4.0,7.0,43,99.99,,,-99.99,,2013-04-09 01:12:00,
2013-04-08 21:22:00,73.0,49.0,30.08,SE,141,4.0,7.0,43,99.99,,,-99.99,,2013-04-09 01:22:00,
2013-04-08 21:33:00,73.0,50.0,30.09,ESE,122,5.0,8.0,44,99.99,,,-99.99,,2013-04-09 01:33:00,
2013-04-08 21:42:00,72.0,50.0,30.10,ESE,121,4.0,8.0,46,99.99,,,-99.99,,2013-04-09 01:42:00,
2013-04-08 21:52:00,72.0,50.0,30.10,ESE,121,4.0,8.0,46,99.99,,,-99.99,,2013-04-09 01:52:00,
2013-04-08 22:02:00,72.0,58.0,30.10,East,98,4.0,8.0,62,99.99,,,-99.99,,2013-04-09 02:02:00,
2013-04-08 22:13:00,72.0,58.0,30.10,East,98,4.0,8.0,62,99.99,,,-99.99,,2013-04-09 02:13:00,
2013-04-08 22:22:00,71.0,-99.9,30.11,ESE,107,3.0,6.0,-999,99.99,,,-99.99,,2013-04-09 02:22:00,
2013-04-08 22:33:00,70.0,59.0,30.11,SE,145,2.0,5.0,67,99.99,,,-99.99,,2013-04-09 02:33:00,
2013-04-08 22:43:00,69.0,59.0,30.11,SSE,156,2.0,4.0,70,99.99,,,-99.99,,2013-04-09 02:43:00,
2013-04-08 22:52:00,69.0,59.0,30.11,SSE,156,2.0,4.0,70,99.99,,,-99.99,,2013-04-09 02:52:00,
2013-04-08 23:02:00,68.0,59.0,30.12,SE,124,2.0,4.0,73,99.99,,,-99.99,,2013-04-09 03:02:00,
2013-04-08 23:12:00,68.0,59.0,30.12,SE,124,2.0,4.0,73,99.99,,,-99.99,,2013-04-09 03:12:00,
2013-04-08 23:22:00,68.0,60.0,30.12,SSE,162,2.0,3.0,75,99.99,,,-99.99,,2013-04-09 03:22:00,
2013-04-08 23:33:00,67.0,60.0,30.12,SE,128,1.0,4.0,77,99.99,,,-99.99,,2013-04-09 03:33:00,
2013-04-08 23:43:00,67.0,60.0,30.12,SE,128,1.0,4.0,77,99.99,,,-99.99,,2013-04-09 03:43:00,
2013-04-08 23:53:00,67.0,60.0,30.12,SSE,153,2.0,5.0,79,99.99,,,-99.99,,2013-04-09 03:53:00,